TimeEDT,TemperatureF,Dew PointF,Humidity,Sea Level PressureIn,VisibilityMPH,Wind Direction,Wind SpeedMPH,Gust SpeedMPH,PrecipitationIn,Events,Conditions,WindDirDegrees,DateUTC
12:53 AM,73.0,57.9,59,29.88,10.0,South,9.2,17.3,N/A,,Clear,180,2013-05-01 04:53:00
1:53 AM,73.9,57.9,57,29.90,10.0,Variable,5.8,19.6,N/A,,Clear,0,2013-05-01 05:53:00
2:53 AM,72.0,57.9,61,29.94,10.0,Variable,4.6,-,N/A,,Clear,0,2013-05-01 06:53:00
3:53 AM,72.0,57.9,61,29.95,10.0,Variable,4.6,-,N/A,,Clear,0,2013-05-01 07:53:00
4:53 AM,70.0,57.9,65,29.96,10.0,SSW,5.8,-,N/A,,Clear,200,2013-05-01 08:53:00
5:53 AM,68.0,57.9,70,29.99,10.0,WSW,4.6,-,N/A,,Partly Cloudy,240,2013-05-01 09:53:00
8:53 AM,71.1,57.9,63,30.04,10.0,Variable,6.9,-,N/A,,Clear,0,2013-05-01 12:53:00
9:53 AM,75.9,57.0,52,30.04,10.0,Variable,5.8,-,N/A,,Clear,0,2013-05-01 13:53:00
10:53 AM,77.0,57.0,50,30.06,10.0,WSW,8.1,-,N/A,,Clear,250,2013-05-01 14:53:00
11:53 AM,79.0,55.9,45,30.07,10.0,Variable,4.6,-,N/A,,Clear,0,2013-05-01 15:53:00
12:02 PM,75.2,55.4,50,30.09,10.0,North,13.8,17.3,N/A,,Clear,10,2013-05-01 16:02:00
12:15 PM,55.4,46.4,72,30.10,9.0,NE,10.4,-,N/A,,Clear,40,2013-05-01 16:15:00
12:53 PM,60.1,46.9,62,30.11,10.0,NNE,10.4,-,N/A,,Clear,30,2013-05-01 16:53:00
1:53 PM,57.9,46.9,67,30.11,10.0,NNE,10.4,-,N/A,,Clear,30,2013-05-01 17:53:00
2:33 PM,59.0,48.2,67,30.12,8.0,NNE,10.4,-,N/A,,Partly Cloudy,20,2013-05-01 18:33:00
2:53 PM,59.0,48.0,67,30.11,8.0,NNE,11.5,-,N/A,,Partly Cloudy,20,2013-05-01 18:53:00
3:53 PM,57.0,48.0,72,30.13,7.0,NNE,13.8,-,N/A,,Clear,20,2013-05-01 19:53:00
5:53 PM,59.0,50.0,72,30.16,7.0,NNE,8.1,-,N/A,,Clear,30,2013-05-01 21:53:00
6:53 PM,61.0,41.0,48,30.18,10.0,North,12.7,23.0,N/A,,Clear,10,2013-05-01 22:53:00
7:53 PM,57.0,37.9,49,30.21,10.0,North,11.5,20.7,N/A,,Partly Cloudy,360,2013-05-01 23:53:00
8:53 PM,53.1,37.0,55,30.24,10.0,North,11.5,20.7,N/A,,Clear,360,2013-05-02 00:53:00
9:53 PM,50.0,36.0,59,30.27,10.0,North,12.7,-,N/A,,Mostly Cloudy,360,2013-05-02 01:53:00
10:53 PM,48.0,36.0,63,30.27,10.0,North,10.4,-,N/A,,Partly Cloudy,350,2013-05-02 02:53:00
11:53 PM,46.0,35.1,66,30.27,10.0,North,8.1,-,N/A,,Partly Cloudy,360,2013-05-02 03:53:00